Terminal Aerodrome Forecast
Issued by NWS Cleveland, OH

Home | Current Version | Previous Version | Graphics & Text | Print | Product List | Glossary On
Versions: 1 2 3 4 5 6 7 8 9 10 11 12 13 14 15 16 17 18 19 20 21 22
000
FTUS41 KCLE 221100
TAFYNG
TAF
KYNG 221130Z 2212/2312 10008KT P6SM SKC
     FM221400 14006KT P6SM SCT045 BKN120
     FM221800 14006KT P6SM BKN040
     FM222200 14008KT P6SM OVC035
     FM230200 13010KT 6SM BR VCSH OVC025
     FM230900 12010KT 6SM -RA BR OVC025=

USA.gov is the U.S. government's official web portal to all federal, state and local government web resources and services.